createdAt,value
2022-10-11T02:44:31.967Z,5.73
2022-10-11T02:45:32.050Z,5.75
2022-10-11T02:46:32.035Z,5.73
2022-10-11T02:47:31.997Z,5.62
2022-10-11T02:48:31.894Z,5.68
2022-10-11T02:49:31.851Z,5.66
2022-10-11T02:50:31.870Z,5.68
2022-10-11T02:51:31.835Z,5.69
2022-10-11T02:52:31.870Z,5.48
2022-10-11T02:53:31.841Z,5.50
2022-10-11T02:54:31.769Z,5.50
2022-10-11T02:55:31.817Z,5.53
2022-10-11T02:56:31.740Z,5.57
2022-10-11T02:57:31.777Z,5.66
2022-10-11T02:58:31.738Z,5.50
2022-10-11T02:59:32.993Z,5.54
2022-10-11T03:00:32.968Z,5.57
2022-10-11T03:01:33.100Z,5.54
2022-10-11T03:02:32.991Z,5.65
2022-10-11T03:03:32.930Z,5.68
2022-10-11T03:04:32.921Z,5.69
2022-10-11T03:05:32.902Z,5.66
2022-10-11T03:06:32.930Z,5.62
2022-10-11T03:07:32.906Z,5.61
2022-10-11T03:08:32.943Z,5.51
2022-10-11T03:09:32.945Z,5.54
2022-10-11T03:10:32.864Z,5.51
2022-10-11T03:11:32.885Z,5.59
2022-10-11T03:12:32.955Z,5.54
2022-10-11T03:13:32.919Z,5.46
2022-10-11T03:14:32.879Z,5.41
2022-10-11T03:15:32.887Z,5.54
2022-10-11T03:16:32.795Z,5.56
2022-10-11T03:17:37.110Z,5.59
2022-10-11T03:18:33.764Z,5.54
2022-10-11T03:19:32.845Z,5.51
2022-10-11T03:20:32.803Z,5.56
2022-10-11T03:21:32.828Z,5.48
2022-10-11T03:22:32.799Z,5.46
2022-10-11T03:23:32.762Z,5.46
2022-10-11T03:24:32.743Z,5.47
2022-10-11T03:25:32.697Z,5.56
2022-10-11T03:26:32.730Z,5.53
2022-10-11T03:27:32.711Z,5.50
2022-10-11T03:28:32.677Z,5.46
2022-10-11T03:29:32.710Z,5.33
2022-10-11T03:30:32.701Z,5.43
2022-10-11T03:31:32.703Z,5.33
2022-10-11T03:32:32.618Z,5.38
2022-10-11T03:33:32.561Z,5.33
2022-10-11T03:34:32.582Z,5.39
2022-10-11T03:35:32.614Z,5.35
2022-10-11T03:36:32.586Z,5.28
2022-10-11T03:37:32.554Z,5.35
2022-10-11T03:38:33.489Z,5.35
2022-10-11T03:39:32.572Z,5.29
2022-10-11T03:40:32.591Z,5.33
2022-10-11T03:41:32.511Z,5.41
2022-10-11T03:42:32.526Z,5.39
2022-10-11T03:43:32.605Z,5.48
2022-10-11T03:44:32.490Z,5.39
2022-10-11T03:45:32.563Z,5.38
2022-10-11T03:46:32.457Z,5.43
2022-10-11T03:47:32.467Z,5.47
2022-10-11T03:48:32.474Z,5.33
2022-10-11T03:49:32.494Z,5.39
2022-10-11T03:50:33.116Z,5.48
2022-10-11T03:51:32.426Z,5.43
2022-10-11T03:52:32.450Z,5.64
2022-10-11T03:53:32.448Z,5.56
2022-10-11T03:54:32.468Z,5.53
2022-10-11T03:55:32.451Z,5.57
2022-10-11T03:56:32.417Z,5.51
2022-10-11T03:57:32.425Z,5.54
2022-10-11T03:58:32.372Z,5.48
2022-10-11T03:59:32.351Z,5.30
2022-10-11T04:00:32.317Z,5.14
2022-10-11T04:01:32.387Z,5.14
2022-10-11T04:02:36.981Z,5.07
2022-10-11T04:03:34.306Z,5.05
2022-10-11T04:04:32.297Z,4.96
2022-10-11T04:05:32.291Z,4.84
2022-10-11T04:06:32.283Z,4.82
2022-10-11T04:07:32.259Z,4.75
2022-10-11T04:08:32.339Z,4.73
2022-10-11T04:09:32.297Z,4.63
2022-10-11T04:10:32.209Z,4.62
2022-10-11T04:11:32.262Z,4.66
2022-10-11T04:12:32.271Z,4.73
2022-10-11T04:13:32.259Z,4.77
2022-10-11T04:14:32.210Z,4.78
2022-10-11T04:15:32.270Z,4.70
2022-10-11T04:16:32.264Z,4.77
2022-10-11T04:17:32.173Z,4.80
2022-10-11T04:18:32.230Z,4.92
2022-10-11T04:19:32.187Z,4.92
2022-10-11T04:20:32.190Z,4.92
2022-10-11T04:21:32.122Z,5.05
2022-10-11T04:22:32.154Z,4.97
2022-10-11T04:23:32.110Z,5.08
2022-10-11T04:24:32.115Z,5.07
2022-10-11T04:25:32.089Z,4.97
2022-10-11T04:26:32.128Z,4.82
2022-10-11T04:27:32.165Z,4.62
2022-10-11T04:28:32.148Z,4.52
2022-10-11T04:29:32.860Z,4.49
2022-10-11T04:30:33.063Z,4.37
2022-10-11T04:31:32.069Z,4.26
2022-10-11T04:32:32.028Z,4.24
2022-10-11T04:33:32.070Z,4.26
2022-10-11T04:34:32.201Z,4.19
2022-10-11T04:35:32.055Z,4.22
2022-10-11T04:36:32.045Z,4.23
2022-10-11T04:37:32.032Z,4.32
2022-10-11T04:38:32.023Z,4.35
2022-10-11T04:39:31.968Z,4.28
2022-10-11T04:40:32.082Z,4.31
2022-10-11T04:41:31.992Z,4.35
2022-10-11T04:42:32.036Z,4.35
2022-10-11T04:46:13.715Z,4.19
2022-10-11T04:47:14.128Z,4.28
2022-10-11T05:10:37.163Z,4.12
2022-10-11T05:11:59.301Z,4.16
2022-10-11T05:25:48.704Z,4.35
2022-10-11T05:26:52.289Z,4.49
2022-10-11T05:27:50.471Z,4.49
2022-10-11T05:28:50.204Z,4.58
2022-10-11T05:29:51.271Z,4.62
2022-10-11T05:30:50.345Z,4.75
2022-10-11T05:33:58.434Z,4.92
2022-10-11T05:34:58.353Z,4.90
2022-10-11T05:36:00.629Z,4.94
2022-10-11T05:36:59.389Z,5.10
2022-10-11T05:37:59.391Z,5.17
2022-10-11T05:38:59.349Z,5.25
2022-10-11T05:39:59.370Z,5.25
2022-10-11T05:40:59.365Z,5.26
2022-10-11T05:41:59.346Z,5.28
2022-10-11T05:42:59.941Z,5.50
2022-10-11T05:43:59.296Z,5.46
2022-10-11T05:44:59.348Z,5.48
2022-10-11T05:45:59.350Z,5.53
2022-10-11T05:49:11.482Z,5.69
2022-10-11T05:50:11.517Z,5.57
2022-10-11T05:54:57.417Z,5.69
2022-10-11T06:03:55.757Z,6.02
2022-10-11T06:05:14.822Z,6.04
2022-10-11T06:09:02.597Z,6.27
2022-10-11T06:10:06.303Z,6.28
2022-10-11T06:11:12.066Z,6.20
2022-10-11T06:12:58.903Z,6.26
2022-10-11T06:13:17.782Z,6.24
2022-10-11T06:14:21.338Z,6.28
2022-10-11T06:15:15.642Z,6.38
2022-10-11T06:16:07.718Z,6.51
2022-10-11T06:17:02.997Z,6.54
2022-10-11T06:18:11.516Z,6.54
2022-10-11T06:19:04.723Z,6.60
2022-10-11T06:20:10.853Z,6.63
2022-10-11T06:28:05.413Z,6.89
2022-10-11T06:29:19.543Z,6.97
2022-10-11T06:30:53.390Z,7.00
2022-10-11T06:31:24.457Z,7.02
2022-10-11T06:32:25.942Z,7.10
2022-10-11T06:33:23.482Z,7.14
2022-10-11T06:34:17.908Z,7.06
2022-10-11T06:35:26.446Z,7.06
2022-10-11T06:36:31.545Z,7.15
2022-10-11T06:37:33.815Z,7.18
2022-10-11T06:39:08.227Z,7.17
2022-10-11T06:39:25.429Z,7.18
2022-10-11T06:41:46.069Z,7.18
2022-10-11T06:42:14.802Z,7.25
2022-10-11T06:42:54.889Z,7.29
2022-10-11T06:43:57.595Z,7.29
2022-10-11T06:46:42.229Z,7.24
2022-10-11T06:52:55.780Z,7.45
2022-10-11T06:53:46.860Z,7.56
2022-10-11T06:54:18.568Z,7.60
2022-10-11T07:00:42.347Z,7.85
2022-10-11T07:02:15.278Z,7.85
2022-10-11T07:04:17.193Z,7.97
2022-10-11T07:05:56.155Z,8.28
2022-10-11T07:07:54.935Z,8.20
2022-10-11T07:08:18.049Z,8.41
2022-10-11T07:09:10.216Z,8.46
2022-10-11T07:10:17.034Z,8.55
2022-10-11T07:11:30.871Z,8.52
2022-10-11T07:12:17.642Z,8.46
2022-10-11T07:13:22.210Z,8.61
2022-10-11T07:14:22.183Z,8.61
2022-10-11T07:15:45.320Z,8.74
2022-10-11T07:16:24.792Z,8.81
2022-10-11T07:17:26.669Z,8.85
2022-10-11T07:18:24.179Z,8.82
2022-10-11T07:20:53.639Z,8.91
2022-10-11T07:21:01.893Z,9.04
2022-10-11T07:22:37.142Z,8.99
2022-10-11T07:23:58.773Z,9.04
2022-10-11T07:24:02.390Z,9.19
2022-10-11T07:25:14.389Z,9.19
2022-10-11T07:33:47.541Z,9.58
2022-10-11T07:35:27.611Z,9.61
2022-10-11T07:36:12.314Z,9.51
2022-10-11T07:37:24.483Z,9.58
2022-10-11T07:37:50.764Z,9.58
2022-10-11T07:39:40.743Z,9.54
2022-10-11T07:39:52.187Z,9.50
2022-10-11T07:41:45.905Z,9.62
2022-10-11T07:45:34.445Z,9.73
2022-10-11T07:56:54.089Z,10.15
2022-10-11T07:58:00.812Z,10.13
2022-10-11T07:58:57.021Z,10.19
2022-10-11T08:04:30.241Z,10.28
2022-10-11T08:06:04.744Z,10.28
2022-10-11T08:15:12.483Z,10.34
2022-10-11T08:16:14.829Z,10.42
2022-10-11T08:19:56.971Z,10.48
2022-10-11T08:20:57.046Z,10.57
2022-10-11T08:21:57.010Z,10.51
2022-10-11T08:22:57.136Z,10.54
2022-10-11T08:23:56.967Z,10.49
2022-10-11T08:24:58.182Z,10.48
2022-10-11T08:25:58.202Z,10.57
2022-10-11T08:26:58.051Z,10.54
2022-10-11T08:27:58.059Z,10.53
2022-10-11T08:28:58.108Z,10.56
2022-10-11T08:29:58.158Z,10.53
2022-10-11T08:30:57.990Z,10.56
2022-10-11T08:31:59.016Z,10.61
2022-10-11T08:32:58.044Z,10.72
2022-10-11T08:33:58.099Z,10.75
2022-10-11T08:34:58.152Z,10.74
2022-10-11T08:35:58.017Z,10.74
2022-10-11T08:36:58.026Z,10.76
2022-10-11T08:37:57.965Z,10.75
2022-10-11T08:38:57.958Z,10.79
2022-10-11T08:39:57.908Z,10.96
2022-10-11T08:40:57.976Z,10.93
2022-10-11T08:41:57.978Z,11.07
2022-10-11T08:42:57.953Z,11.05
2022-10-11T08:43:57.942Z,11.04
2022-10-11T08:45:10.540Z,11.15
2022-10-11T08:45:59.933Z,11.17
2022-10-11T08:47:00.462Z,11.10
2022-10-11T08:47:58.825Z,11.12
2022-10-11T08:48:57.992Z,11.11
2022-10-11T08:49:57.927Z,11.22
2022-10-11T08:50:57.889Z,11.26
2022-10-11T08:51:58.136Z,11.43
2022-10-11T08:52:58.047Z,11.33
2022-10-11T08:53:57.817Z,11.26
2022-10-11T08:54:57.803Z,11.40
2022-10-11T08:55:57.896Z,11.43
2022-10-11T08:56:57.998Z,11.33
2022-10-11T08:57:57.790Z,11.19
2022-10-11T08:58:57.778Z,11.35
2022-10-11T08:59:57.801Z,11.35
2022-10-11T09:00:57.743Z,11.60
2022-10-11T09:01:57.890Z,11.62
2022-10-11T09:03:10.203Z,11.78
2022-10-11T09:03:59.726Z,11.97
2022-10-11T09:04:57.703Z,11.91
2022-10-11T09:05:57.727Z,12.02
2022-10-11T09:07:01.302Z,11.97
2022-10-11T09:07:58.684Z,11.81
2022-10-11T09:08:57.751Z,11.83
2022-10-11T09:09:57.644Z,11.84
2022-10-11T09:10:57.684Z,11.83
2022-10-11T09:11:57.617Z,11.72
2022-10-11T09:12:57.632Z,11.77
2022-10-11T09:13:57.886Z,11.62
2022-10-11T09:14:58.586Z,11.62
2022-10-11T09:15:57.600Z,11.73
2022-10-11T09:16:57.658Z,11.84
2022-10-11T09:17:57.719Z,11.81
2022-10-11T09:18:57.588Z,11.77
2022-10-11T09:19:58.616Z,11.83
2022-10-11T09:20:57.574Z,11.97
2022-10-11T09:21:57.541Z,11.84
2022-10-11T09:22:57.545Z,11.87
2022-10-11T09:23:57.530Z,11.97
2022-10-11T09:24:57.562Z,12.09
2022-10-11T09:25:57.516Z,12.06
2022-10-11T09:26:58.591Z,12.13
2022-10-11T09:28:02.965Z,12.10
2022-10-11T09:29:01.341Z,12.10
2022-10-11T09:29:58.464Z,12.10
2022-10-11T09:30:57.509Z,12.00
2022-10-11T09:31:57.493Z,12.07
2022-10-11T09:32:57.400Z,12.02
2022-10-11T09:33:57.426Z,12.10
2022-10-11T09:34:57.420Z,12.18
2022-10-11T09:35:57.453Z,12.25
2022-10-11T09:36:57.434Z,12.20
2022-10-11T09:37:57.435Z,12.37
2022-10-11T09:38:57.392Z,12.46
2022-10-11T09:39:57.377Z,12.58
2022-10-11T09:40:57.360Z,12.60
2022-10-11T09:41:57.317Z,12.58
2022-10-11T09:42:57.392Z,12.73
2022-10-11T09:43:57.506Z,12.72
2022-10-11T09:44:57.365Z,12.78
2022-10-11T09:45:57.556Z,12.80
2022-10-11T09:46:57.278Z,12.87
2022-10-11T09:47:57.370Z,12.86
2022-10-11T09:48:57.349Z,12.87
2022-10-11T09:49:57.323Z,12.91
2022-10-11T09:50:57.302Z,12.76
2022-10-11T09:51:57.213Z,12.60
2022-10-11T09:52:57.176Z,12.68
2022-10-11T09:53:57.174Z,12.82
2022-10-11T09:54:57.192Z,12.86
2022-10-11T09:55:57.212Z,12.98
2022-10-11T09:56:57.886Z,12.94
2022-10-11T09:57:57.409Z,12.98
2022-10-11T09:58:58.036Z,12.87
2022-10-11T09:59:57.168Z,12.91
2022-10-11T10:00:57.315Z,12.85
2022-10-11T10:01:57.356Z,13.09
2022-10-11T10:02:57.050Z,13.08
2022-10-11T10:03:57.050Z,13.16
2022-10-11T10:04:57.114Z,13.13
2022-10-11T10:05:57.109Z,13.27
2022-10-11T10:06:57.161Z,13.33
2022-10-11T10:07:57.090Z,13.47
2022-10-11T10:08:57.075Z,13.49
2022-10-11T10:09:57.168Z,13.46
2022-10-11T10:10:59.481Z,13.53
2022-10-11T10:11:58.138Z,13.49
2022-10-11T10:12:57.124Z,13.16
2022-10-11T10:13:57.088Z,13.11
2022-10-11T10:14:57.035Z,13.13
2022-10-11T10:15:57.039Z,13.25
2022-10-11T10:16:57.107Z,13.42
2022-10-11T10:17:56.932Z,13.41
2022-10-11T10:18:57.148Z,13.54
2022-10-11T10:19:56.973Z,13.75
2022-10-11T10:20:56.938Z,13.62
2022-10-11T10:21:57.264Z,13.59
2022-10-11T10:22:56.934Z,13.63
2022-10-11T10:23:56.947Z,13.62
2022-10-11T10:24:57.075Z,13.81
2022-10-11T10:25:56.862Z,14.07
2022-10-11T10:26:56.884Z,14.18
2022-10-11T10:27:56.839Z,14.33
2022-10-11T10:28:57.121Z,14.47
2022-10-11T10:29:56.961Z,14.63
2022-10-11T10:30:56.984Z,14.78
2022-10-11T10:32:58.759Z,14.77
2022-10-11T10:33:57.052Z,14.65
2022-10-11T10:34:57.987Z,14.62
2022-10-11T10:35:57.014Z,14.72
2022-10-11T10:36:56.927Z,14.78
2022-10-11T10:37:56.762Z,14.50
2022-10-11T10:38:56.796Z,14.18
2022-10-11T10:39:56.750Z,14.05
2022-10-11T10:40:56.785Z,13.75
2022-10-11T10:41:56.855Z,13.67
2022-10-11T10:42:57.448Z,13.63
2022-10-11T10:43:56.832Z,13.63
2022-10-11T10:44:56.842Z,13.81
2022-10-11T10:45:56.711Z,14.14
2022-10-11T10:46:56.741Z,14.26
2022-10-11T10:47:56.752Z,14.58
2022-10-11T10:49:58.779Z,14.86
2022-10-11T10:50:56.711Z,14.97
2022-10-11T10:51:56.675Z,14.99
2022-10-11T10:52:56.580Z,14.89
2022-10-11T10:53:56.593Z,14.96
2022-10-11T10:54:56.546Z,15.04
2022-10-11T10:55:57.282Z,14.92
2022-10-11T10:56:58.675Z,14.99
2022-10-11T10:57:56.599Z,15.11
2022-10-11T10:58:56.657Z,15.06
2022-10-11T10:59:56.655Z,15.35
2022-10-11T11:10:10.822Z,15.65
2022-10-11T11:11:12.343Z,15.76
2022-10-11T11:25:45.315Z,19.47
2022-10-11T11:33:14.483Z,19.76
2022-10-11T11:41:15.614Z,22.17
2022-10-11T11:42:16.897Z,22.45
2022-10-11T11:43:17.723Z,22.36
2022-10-11T11:44:16.608Z,21.80
2022-10-11T11:45:16.616Z,21.52
2022-10-11T11:46:16.709Z,21.48
2022-10-11T11:47:16.635Z,20.67
2022-10-11T11:48:17.842Z,20.31
2022-10-11T11:49:17.090Z,19.69
2022-10-11T11:50:16.629Z,19.73
2022-10-11T11:51:16.737Z,19.99
2022-10-11T11:52:19.371Z,20.21
2022-10-11T12:00:19.624Z,21.76
2022-10-11T12:13:44.995Z,20.16
2022-10-11T12:22:14.164Z,20.51
2022-10-11T12:23:19.155Z,20.51
2022-10-11T12:24:17.256Z,20.21
2022-10-11T12:25:18.358Z,20.02
2022-10-11T12:26:15.489Z,19.79
2022-10-11T12:27:14.666Z,20.00
2022-10-11T12:28:14.567Z,19.76
2022-10-11T12:29:14.507Z,19.92
2022-10-11T12:30:14.486Z,20.10
2022-10-11T12:31:14.470Z,19.88
2022-10-11T12:32:14.550Z,19.85
2022-10-11T12:33:14.468Z,19.47
2022-10-11T12:34:17.930Z,19.49
2022-10-11T12:35:19.202Z,19.71
2022-10-11T12:36:15.976Z,19.82
2022-10-11T12:37:48.789Z,19.88
2022-10-11T12:38:14.895Z,20.00
2022-10-11T12:41:28.507Z,19.91
2022-10-11T12:44:20.604Z,20.04
2022-10-11T12:45:28.231Z,20.18
2022-10-11T12:46:20.587Z,20.26
2022-10-11T12:49:36.174Z,20.16
2022-10-11T12:54:14.673Z,19.49
2022-10-11T12:54:57.929Z,19.66
2022-10-11T12:56:28.580Z,19.86
2022-10-11T12:56:56.276Z,20.00
2022-10-11T13:04:39.782Z,19.34
2022-10-11T13:07:50.337Z,19.11
2022-10-11T13:20:09.955Z,23.32
2022-10-11T13:23:45.044Z,23.59
2022-10-11T13:57:18.617Z,17.33
2022-10-11T14:05:18.118Z,16.50
2022-10-11T14:06:51.915Z,16.47
2022-10-11T14:11:05.156Z,16.09
2022-10-11T14:15:14.916Z,15.88
2022-10-11T14:16:16.373Z,15.83
2022-10-11T14:17:16.155Z,15.86
2022-10-11T14:18:16.019Z,15.82
2022-10-11T14:24:20.677Z,15.57
2022-10-11T14:29:29.721Z,15.25
2022-10-11T14:30:59.105Z,15.02
2022-10-11T14:37:57.459Z,15.11
2022-10-11T14:38:57.469Z,15.11
2022-10-11T14:39:57.291Z,15.09
2022-10-11T14:40:58.709Z,14.99
2022-10-11T14:41:58.409Z,14.91
2022-10-11T14:42:58.367Z,14.85
2022-10-11T14:43:58.320Z,14.88
2022-10-11T14:44:58.481Z,14.96
2022-10-11T14:45:58.370Z,14.82
2022-10-11T14:46:58.350Z,14.96
2022-10-11T14:47:58.377Z,14.99
2022-10-11T14:48:58.276Z,14.89
2022-10-11T14:49:58.288Z,14.96
2022-10-11T14:50:58.356Z,14.91
2022-10-11T14:51:58.318Z,14.89
2022-10-11T14:52:58.485Z,14.91
2022-10-11T14:53:58.224Z,14.86
2022-10-11T14:54:58.237Z,15.00
2022-10-11T14:55:58.229Z,14.91
2022-10-11T14:56:58.177Z,14.92
2022-10-11T14:57:58.261Z,14.96
2022-10-11T14:58:58.181Z,14.97
2022-10-11T14:59:58.883Z,14.82
2022-10-11T15:00:58.297Z,14.91
2022-10-11T15:01:58.180Z,14.84
2022-10-11T15:02:58.223Z,14.86
2022-10-11T15:03:58.127Z,14.84
2022-10-11T15:04:58.174Z,14.85
2022-10-11T15:05:58.867Z,14.84
2022-10-11T15:06:58.137Z,14.97
2022-10-11T15:07:58.116Z,14.88
2022-10-11T15:08:58.135Z,14.92
2022-10-11T15:09:58.056Z,14.85
2022-10-11T15:10:58.097Z,14.89
2022-10-11T15:11:58.104Z,14.88
2022-10-11T15:12:58.087Z,14.99
2022-10-11T15:13:58.077Z,14.85
2022-10-11T15:14:58.029Z,14.86
2022-10-11T15:15:58.053Z,14.77
2022-10-11T15:16:58.038Z,14.84
2022-10-11T15:17:57.992Z,14.66
2022-10-11T15:18:57.962Z,14.73
2022-10-11T15:19:57.947Z,14.69
2022-10-11T15:20:58.000Z,14.70
2022-10-11T15:21:57.971Z,14.65
2022-10-11T15:22:57.938Z,14.70
2022-10-11T15:23:57.935Z,14.62
2022-10-11T15:24:58.114Z,14.70
2022-10-11T15:25:58.020Z,14.70
2022-10-11T15:26:57.966Z,14.72
2022-10-11T15:28:00.146Z,14.72
2022-10-11T15:28:57.962Z,14.77
2022-10-11T15:29:57.895Z,14.66
2022-10-11T15:30:57.902Z,14.77
2022-10-11T15:31:57.903Z,14.77
2022-10-11T15:32:57.871Z,14.70
2022-10-11T15:33:58.259Z,14.72
2022-10-11T15:34:58.055Z,14.65
2022-10-11T15:35:58.174Z,14.69
2022-10-11T15:36:58.062Z,14.70
2022-10-11T15:37:57.940Z,14.68
2022-10-11T15:38:57.962Z,14.72
2022-10-11T15:39:57.889Z,14.60
2022-10-11T15:40:58.223Z,14.58
2022-10-11T15:41:58.761Z,14.36
2022-10-11T15:42:57.860Z,14.33
2022-10-11T15:43:58.028Z,14.35
2022-10-11T15:44:58.065Z,14.41
2022-10-11T15:45:58.373Z,14.37
2022-10-11T15:46:57.898Z,14.29
2022-10-11T15:48:32.003Z,14.35
2022-10-11T15:49:31.476Z,14.32
2022-10-11T15:49:57.973Z,14.26
2022-10-11T15:50:57.832Z,14.36
2022-10-11T15:51:57.838Z,14.28
2022-10-11T15:52:57.801Z,14.26
2022-10-11T15:53:57.769Z,14.32
2022-10-11T15:54:57.750Z,14.35
2022-10-11T15:55:57.754Z,14.26
2022-10-11T15:56:57.675Z,14.23
2022-10-11T15:57:57.705Z,14.23
2022-10-11T15:58:57.665Z,14.17
2022-10-11T15:59:57.679Z,14.14
2022-10-11T16:00:57.631Z,14.18
2022-10-11T16:01:57.848Z,14.10
2022-10-11T16:02:57.729Z,13.96
2022-10-11T16:03:57.660Z,13.95
2022-10-11T16:04:57.617Z,14.03
2022-10-11T16:06:02.375Z,13.97
2022-10-11T16:06:58.808Z,13.86
2022-10-11T16:07:57.646Z,13.74
2022-10-11T16:08:57.572Z,13.60
2022-10-11T16:09:57.631Z,13.56
2022-10-11T16:10:57.597Z,13.50
2022-10-11T16:11:57.608Z,13.56
2022-10-11T16:12:57.583Z,13.49
2022-10-11T16:13:58.472Z,13.47
2022-10-11T16:14:57.559Z,13.49
2022-10-11T16:15:57.606Z,13.37
2022-10-11T16:17:00.156Z,13.39
2022-10-11T16:17:57.521Z,13.42
2022-10-11T16:18:57.572Z,13.33
2022-10-11T16:19:57.545Z,13.35
2022-10-11T16:20:57.414Z,13.22
2022-10-11T16:21:57.507Z,13.23
2022-10-11T16:22:57.456Z,13.12
2022-10-11T16:23:57.456Z,13.08
2022-10-11T16:24:57.486Z,12.98
2022-10-11T16:25:57.424Z,12.91
2022-10-11T16:26:57.448Z,12.91
2022-10-11T16:27:57.454Z,12.83
2022-10-11T16:28:57.380Z,12.79
2022-10-11T16:29:57.471Z,12.68
2022-10-11T16:30:57.375Z,12.65
2022-10-11T16:31:57.429Z,12.61
2022-10-11T16:32:57.392Z,12.49
2022-10-11T16:33:57.359Z,12.49
2022-10-11T16:34:57.330Z,12.43
2022-10-11T16:35:57.422Z,12.35
2022-10-11T16:36:57.376Z,12.25
2022-10-11T16:37:57.341Z,12.25
2022-10-11T16:38:57.346Z,11.99
2022-10-11T16:39:57.351Z,11.66
2022-10-11T16:40:57.369Z,11.43
2022-10-11T16:41:57.364Z,11.40
2022-10-11T16:42:57.282Z,11.22
2022-10-11T16:43:57.275Z,11.11
2022-10-11T16:44:57.377Z,11.00
2022-10-11T16:45:57.331Z,10.90
2022-10-11T16:46:57.238Z,10.76
2022-10-11T16:47:57.249Z,10.61
2022-10-11T16:48:57.259Z,10.64
2022-10-11T16:49:57.166Z,10.56
2022-10-11T16:50:57.173Z,10.40
2022-10-11T16:51:57.244Z,10.26
2022-10-11T16:52:57.316Z,10.20
2022-10-11T16:53:57.200Z,10.13
2022-10-11T16:54:57.214Z,9.99
2022-10-11T16:56:30.961Z,9.95
2022-10-11T17:05:50.080Z,9.51
2022-10-11T17:06:52.529Z,9.56
2022-10-11T17:07:51.452Z,9.56
2022-10-11T17:08:51.140Z,9.48
2022-10-11T17:09:51.100Z,9.41
2022-10-11T17:10:51.098Z,9.40
2022-10-11T17:11:51.037Z,9.40
2022-10-11T17:12:51.052Z,9.46
2022-10-11T17:13:51.057Z,9.39
2022-10-11T17:14:51.023Z,9.34
2022-10-11T17:15:51.063Z,9.44
2022-10-11T17:16:50.998Z,9.29
2022-10-11T17:17:51.017Z,9.34
2022-10-11T17:18:50.965Z,9.26
2022-10-11T17:19:50.956Z,9.39
2022-10-11T17:20:50.920Z,9.22
2022-10-11T17:21:51.015Z,9.25
2022-10-11T17:22:50.970Z,9.13
2022-10-11T17:23:50.940Z,9.06
2022-10-11T17:24:50.924Z,9.10
2022-10-11T17:25:50.955Z,9.04
2022-10-11T17:26:50.939Z,8.95
2022-10-11T17:27:50.894Z,9.02
2022-10-11T17:28:50.923Z,9.03
2022-10-11T17:29:50.960Z,9.06
2022-10-11T17:30:50.955Z,9.03
2022-10-11T17:31:50.888Z,8.89
2022-10-11T17:32:50.929Z,8.79
2022-10-11T17:33:50.874Z,8.79
2022-10-11T17:34:51.814Z,8.85
2022-10-11T17:35:50.778Z,8.79
2022-10-11T17:36:50.933Z,8.84
2022-10-11T17:37:50.862Z,8.89
2022-10-11T17:38:50.922Z,8.79
2022-10-11T17:39:50.841Z,8.82
2022-10-11T17:40:50.884Z,8.79
2022-10-11T17:41:50.796Z,8.87
2022-10-11T17:42:50.754Z,8.89
2022-10-11T17:43:50.780Z,8.69
2022-10-11T17:44:50.734Z,8.78
2022-10-11T17:45:50.762Z,8.66
2022-10-11T17:46:50.752Z,8.64
2022-10-11T17:47:50.743Z,8.60
2022-10-11T17:48:50.679Z,8.55
2022-10-11T17:49:50.682Z,8.49
2022-10-11T17:50:50.954Z,8.46
2022-10-11T17:51:51.709Z,8.51
2022-10-11T17:52:50.722Z,8.42
2022-10-11T17:53:50.658Z,8.34
2022-10-11T17:54:50.647Z,8.27
2022-10-11T17:55:50.860Z,8.23
2022-10-11T17:56:50.647Z,8.08
2022-10-11T17:57:50.622Z,8.12
2022-10-11T17:58:50.618Z,8.06
2022-10-11T17:59:50.606Z,8.08
2022-10-11T18:00:50.655Z,8.09
2022-10-11T18:01:50.559Z,8.12
2022-10-11T18:02:50.591Z,8.09
2022-10-11T18:03:50.584Z,8.06
2022-10-11T18:04:50.532Z,8.12
2022-10-11T18:05:50.532Z,8.10
2022-10-11T18:06:50.604Z,8.00
2022-10-11T18:07:50.616Z,8.05
2022-10-11T18:08:50.527Z,8.00
2022-10-11T18:09:51.510Z,7.94
2022-10-11T18:10:50.516Z,7.98
2022-10-11T18:11:50.508Z,7.90
2022-10-11T18:12:51.064Z,7.83
2022-10-11T18:13:50.439Z,7.88
2022-10-11T18:14:50.503Z,7.83
2022-10-11T18:15:53.590Z,7.69
2022-10-11T18:16:51.437Z,7.77
2022-10-11T18:17:50.412Z,7.70
2022-10-11T18:18:50.387Z,7.72
2022-10-11T18:19:50.371Z,7.60
2022-10-11T18:20:50.440Z,7.54
2022-10-11T18:21:50.443Z,7.50
2022-10-11T18:22:50.418Z,7.39
2022-10-11T18:23:50.436Z,7.31
2022-10-11T18:24:50.351Z,7.20
2022-10-11T18:25:50.769Z,7.23
2022-10-11T18:26:51.298Z,7.11
2022-10-11T18:27:50.344Z,7.17
2022-10-11T18:28:50.584Z,7.03
2022-10-11T18:29:50.965Z,7.15
2022-10-11T18:30:50.315Z,7.14
2022-10-11T18:31:50.587Z,7.05
2022-10-11T18:32:52.210Z,7.11
2022-10-11T18:33:50.241Z,7.07
2022-10-11T18:34:51.076Z,7.05
2022-10-11T18:35:54.513Z,7.17
2022-10-11T18:36:50.243Z,7.03
2022-10-11T18:37:50.341Z,7.05
2022-10-11T18:38:50.831Z,7.02
2022-10-11T18:39:50.973Z,7.00
2022-10-11T18:40:51.642Z,7.00
2022-10-11T18:41:50.159Z,6.87
2022-10-11T18:42:50.295Z,6.84
2022-10-11T18:43:51.174Z,6.79
2022-10-11T18:44:51.132Z,6.77
2022-10-11T18:45:50.262Z,6.78
2022-10-11T18:46:50.222Z,6.72
2022-10-11T18:47:50.131Z,6.79
2022-10-11T18:48:50.111Z,6.85
2022-10-11T18:49:51.094Z,6.79
2022-10-11T18:50:50.456Z,6.77
2022-10-11T18:51:50.045Z,6.72
2022-10-11T18:52:50.162Z,6.75
2022-10-11T18:53:50.078Z,6.79
2022-10-11T18:54:50.003Z,6.79
2022-10-11T18:55:50.126Z,6.75
2022-10-11T18:56:50.053Z,6.77
2022-10-11T18:57:50.083Z,6.82
2022-10-11T18:58:50.125Z,6.82
2022-10-11T18:59:50.603Z,6.79
2022-10-11T19:00:51.268Z,6.75
2022-10-11T19:01:50.122Z,6.72
2022-10-11T19:02:51.550Z,6.72
2022-10-11T19:03:53.102Z,6.64
2022-10-11T19:04:50.719Z,6.52
2022-10-11T19:05:50.200Z,6.48
2022-10-11T19:06:51.016Z,6.46
2022-10-11T19:07:49.884Z,6.45
2022-10-11T19:08:49.930Z,6.33
2022-10-11T19:09:50.731Z,6.33
2022-10-11T19:10:49.973Z,6.17
2022-10-11T19:11:51.628Z,6.24
2022-10-11T19:12:49.908Z,6.19
2022-10-11T19:13:50.175Z,6.16
2022-10-11T19:14:49.874Z,6.08
2022-10-11T19:15:49.814Z,6.07
2022-10-11T19:16:49.854Z,6.01
2022-10-11T19:17:50.829Z,5.99
2022-10-11T19:18:49.843Z,6.08
2022-10-11T19:19:49.906Z,5.97
2022-10-11T19:20:49.811Z,5.97
2022-10-11T19:21:49.804Z,5.99
2022-10-11T19:22:49.786Z,6.05
2022-10-11T19:23:49.777Z,5.97
2022-10-11T19:24:49.756Z,5.98
2022-10-11T19:25:49.898Z,5.93
2022-10-11T19:26:49.725Z,6.07
2022-10-11T19:27:49.746Z,5.89
2022-10-11T19:28:49.805Z,5.82
2022-10-11T19:29:49.743Z,5.80
2022-10-11T19:30:50.756Z,5.86
2022-10-11T19:31:49.757Z,5.82
2022-10-11T19:32:49.712Z,5.83
2022-10-11T19:33:49.689Z,5.75
2022-10-11T19:34:49.737Z,5.82
2022-10-11T19:35:49.755Z,5.80
2022-10-11T19:36:49.648Z,5.73
2022-10-11T19:37:49.738Z,5.79
2022-10-11T19:38:49.730Z,5.82
2022-10-11T19:39:49.694Z,5.84
2022-10-11T19:40:49.629Z,5.83
2022-10-11T19:41:49.615Z,5.90
2022-10-11T19:42:49.680Z,5.99
2022-10-11T19:43:49.612Z,5.94
2022-10-11T19:44:49.584Z,5.90
2022-10-11T19:45:49.620Z,6.01
2022-10-11T19:46:51.915Z,5.94
2022-10-11T19:47:50.658Z,6.09
2022-10-11T19:48:49.581Z,6.02
2022-10-11T19:49:49.553Z,5.97
2022-10-11T19:50:49.489Z,6.08
2022-10-11T19:51:50.172Z,5.99
2022-10-11T19:52:49.511Z,6.08
2022-10-11T19:53:49.572Z,6.11
2022-10-11T19:54:49.496Z,6.05
2022-10-11T19:55:49.492Z,6.04
2022-10-11T19:56:49.442Z,6.11
2022-10-11T19:57:49.406Z,5.99
2022-10-11T19:58:49.729Z,6.04
2022-10-11T20:06:38.749Z,5.91
2022-10-11T20:07:37.933Z,5.76
2022-10-11T20:08:37.862Z,5.86
2022-10-11T20:09:39.201Z,5.90
2022-10-11T20:10:39.010Z,5.93
2022-10-11T20:11:39.824Z,5.94
2022-10-11T20:12:43.595Z,6.02
2022-10-11T20:13:41.241Z,5.91
2022-10-11T20:14:38.970Z,5.98
2022-10-11T20:15:38.894Z,5.89
2022-10-11T20:16:38.883Z,5.93
2022-10-11T20:17:38.946Z,5.91
2022-10-11T20:18:39.821Z,5.97
2022-10-11T20:33:54.192Z,5.57
2022-10-11T20:35:35.565Z,5.68
2022-10-11T20:39:35.077Z,5.38
2022-10-11T20:41:18.056Z,5.35
2022-10-11T20:42:01.299Z,5.23
2022-10-11T20:51:06.215Z,4.77
2022-10-11T20:53:23.741Z,4.78
2022-10-11T20:53:38.756Z,4.77
2022-10-11T20:54:48.794Z,4.90
2022-10-11T20:55:48.649Z,4.94
2022-10-11T20:59:10.607Z,5.26
2022-10-11T21:00:50.114Z,5.26
2022-10-11T21:45:41.007Z,4.59
2022-10-11T21:48:48.093Z,4.52
2022-10-11T22:07:15.895Z,3.88
2022-10-11T22:09:55.453Z,3.81
2022-10-11T22:56:45.870Z,4.04
2022-10-11T22:59:09.722Z,4.02
2022-10-11T23:15:35.921Z,3.21
2022-10-11T23:30:41.821Z,2.77
2022-10-11T23:33:16.060Z,2.80
2022-10-11T23:35:08.598Z,2.95
2022-10-11T23:36:20.282Z,2.80
2022-10-11T23:37:48.368Z,2.93
2022-10-11T23:39:37.253Z,2.93
2022-10-11T23:40:44.716Z,2.98